sensor_id;sensor_type;location;lat;lon;timestamp;temperature;humidity
8953;DHT22;4511;50.890;8.054;2023-01-28T00:00:52;2.60;99.90
8953;DHT22;4511;50.890;8.054;2023-01-28T00:03:20;2.60;99.90
8953;DHT22;4511;50.890;8.054;2023-01-28T00:05:47;2.60;99.90
8953;DHT22;4511;50.890;8.054;2023-01-28T00:08:13;2.60;99.90
8953;DHT22;4511;50.890;8.054;2023-01-28T00:10:40;2.60;99.90
8953;DHT22;4511;50.890;8.054;2023-01-28T00:13:07;2.60;99.90
8953;DHT22;4511;50.890;8.054;2023-01-28T00:15:35;2.60;99.90
8953;DHT22;4511;50.890;8.054;2023-01-28T00:18:02;2.60;99.90
8953;DHT22;4511;50.890;8.054;2023-01-28T00:20:30;2.60;99.90
8953;DHT22;4511;50.890;8.054;2023-01-28T00:22:57;2.70;99.90
8953;DHT22;4511;50.890;8.054;2023-01-28T00:25:23;2.60;99.90
8953;DHT22;4511;50.890;8.054;2023-01-28T00:27:50;2.60;99.90
8953;DHT22;4511;50.890;8.054;2023-01-28T00:30:16;2.60;99.90
8953;DHT22;4511;50.890;8.054;2023-01-28T00:32:43;2.70;99.90
8953;DHT22;4511;50.890;8.054;2023-01-28T00:35:10;2.70;99.90
8953;DHT22;4511;50.890;8.054;2023-01-28T00:37:38;2.70;99.90
8953;DHT22;4511;50.890;8.054;2023-01-28T00:40:05;2.60;99.90
8953;DHT22;4511;50.890;8.054;2023-01-28T00:42:34;2.60;99.90
8953;DHT22;4511;50.890;8.054;2023-01-28T00:45:01;2.60;99.90
8953;DHT22;4511;50.890;8.054;2023-01-28T00:47:28;2.60;99.90
8953;DHT22;4511;50.890;8.054;2023-01-28T00:49:54;2.60;99.90
8953;DHT22;4511;50.890;8.054;2023-01-28T00:52:21;2.60;99.90
8953;DHT22;4511;50.890;8.054;2023-01-28T00:54:49;2.60;99.90
8953;DHT22;4511;50.890;8.054;2023-01-28T00:57:16;2.70;99.90
8953;DHT22;4511;50.890;8.054;2023-01-28T00:59:42;2.70;99.90
8953;DHT22;4511;50.890;8.054;2023-01-28T01:02:09;2.70;99.90
8953;DHT22;4511;50.890;8.054;2023-01-28T01:04:37;2.70;99.90
8953;DHT22;4511;50.890;8.054;2023-01-28T01:07:04;2.70;99.90
8953;DHT22;4511;50.890;8.054;2023-01-28T01:09:31;2.60;99.90
8953;DHT22;4511;50.890;8.054;2023-01-28T01:11:59;2.60;99.90
8953;DHT22;4511;50.890;8.054;2023-01-28T01:14:25;2.50;99.90
8953;DHT22;4511;50.890;8.054;2023-01-28T01:16:52;2.50;99.90
8953;DHT22;4511;50.890;8.054;2023-01-28T01:19:19;2.40;99.90
8953;DHT22;4511;50.890;8.054;2023-01-28T01:21:45;2.40;99.90
8953;DHT22;4511;50.890;8.054;2023-01-28T01:24:14;2.40;99.90
8953;DHT22;4511;50.890;8.054;2023-01-28T01:26:41;2.40;99.90
8953;DHT22;4511;50.890;8.054;2023-01-28T01:29:09;2.40;99.90
8953;DHT22;4511;50.890;8.054;2023-01-28T01:31:36;2.40;99.90
8953;DHT22;4511;50.890;8.054;2023-01-28T01:34:02;2.30;99.90
8953;DHT22;4511;50.890;8.054;2023-01-28T01:36:29;2.30;99.90
8953;DHT22;4511;50.890;8.054;2023-01-28T01:38:56;2.30;99.90
8953;DHT22;4511;50.890;8.054;2023-01-28T01:41:25;2.30;99.90
8953;DHT22;4511;50.890;8.054;2023-01-28T01:43:53;2.30;99.90
8953;DHT22;4511;50.890;8.054;2023-01-28T01:46:22;2.30;99.90
8953;DHT22;4511;50.890;8.054;2023-01-28T01:48:49;2.40;99.90
8953;DHT22;4511;50.890;8.054;2023-01-28T01:51:18;2.40;99.90
8953;DHT22;4511;50.890;8.054;2023-01-28T01:53:47;2.30;99.90
8953;DHT22;4511;50.890;8.054;2023-01-28T01:56:16;2.30;99.90
8953;DHT22;4511;50.890;8.054;2023-01-28T01:58:43;2.30;99.90
8953;DHT22;4511;50.890;8.054;2023-01-28T02:01:11;2.30;99.90
8953;DHT22;4511;50.890;8.054;2023-01-28T02:03:42;2.30;99.90
8953;DHT22;4511;50.890;8.054;2023-01-28T02:06:13;2.20;99.90
8953;DHT22;4511;50.890;8.054;2023-01-28T02:08:40;2.30;99.90
8953;DHT22;4511;50.890;8.054;2023-01-28T02:11:07;2.30;99.90
8953;DHT22;4511;50.890;8.054;2023-01-28T02:13:36;2.20;99.90
8953;DHT22;4511;50.890;8.054;2023-01-28T02:16:05;2.20;99.90
8953;DHT22;4511;50.890;8.054;2023-01-28T02:18:32;2.20;99.90
8953;DHT22;4511;50.890;8.054;2023-01-28T02:23:45;2.10;99.90
8953;DHT22;4511;50.890;8.054;2023-01-28T02:26:22;2.20;99.90
8953;DHT22;4511;50.890;8.054;2023-01-28T02:28:53;2.20;99.90
8953;DHT22;4511;50.890;8.054;2023-01-28T02:31:21;2.10;99.90
8953;DHT22;4511;50.890;8.054;2023-01-28T02:33:50;2.10;99.90
8953;DHT22;4511;50.890;8.054;2023-01-28T02:36:20;2.10;99.90
8953;DHT22;4511;50.890;8.054;2023-01-28T02:38:48;2.20;99.90
8953;DHT22;4511;50.890;8.054;2023-01-28T02:41:17;2.20;99.90
8953;DHT22;4511;50.890;8.054;2023-01-28T02:43:46;2.20;99.90
8953;DHT22;4511;50.890;8.054;2023-01-28T02:46:17;2.20;99.90
8953;DHT22;4511;50.890;8.054;2023-01-28T02:49:18;2.20;99.90
8953;DHT22;4511;50.890;8.054;2023-01-28T02:51:52;2.10;99.90
8953;DHT22;4511;50.890;8.054;2023-01-28T02:54:26;2.10;99.90
8953;DHT22;4511;50.890;8.054;2023-01-28T02:56:57;2.10;99.90
8953;DHT22;4511;50.890;8.054;2023-01-28T02:59:28;2.20;99.90
8953;DHT22;4511;50.890;8.054;2023-01-28T03:02:06;2.10;99.90
8953;DHT22;4511;50.890;8.054;2023-01-28T03:04:35;2.20;99.90
8953;DHT22;4511;50.890;8.054;2023-01-28T03:07:04;2.10;99.90
8953;DHT22;4511;50.890;8.054;2023-01-28T03:09:32;2.10;99.90
8953;DHT22;4511;50.890;8.054;2023-01-28T03:12:00;2.10;99.90
8953;DHT22;4511;50.890;8.054;2023-01-28T03:14:45;2.10;99.90
8953;DHT22;4511;50.890;8.054;2023-01-28T03:17:33;2.00;99.90
8953;DHT22;4511;50.890;8.054;2023-01-28T03:20:20;2.00;99.90
8953;DHT22;4511;50.890;8.054;2023-01-28T03:23:06;2.00;99.90
8953;DHT22;4511;50.890;8.054;2023-01-28T03:25:52;2.10;99.90
8953;DHT22;4511;50.890;8.054;2023-01-28T03:28:38;2.00;99.90
8953;DHT22;4511;50.890;8.054;2023-01-28T03:31:22;2.00;99.90
8953;DHT22;4511;50.890;8.054;2023-01-28T03:34:09;2.00;99.90
8953;DHT22;4511;50.890;8.054;2023-01-28T03:36:54;2.00;99.90
8953;DHT22;4511;50.890;8.054;2023-01-28T03:39:21;2.00;99.90
8953;DHT22;4511;50.890;8.054;2023-01-28T03:41:58;2.00;99.90
8953;DHT22;4511;50.890;8.054;2023-01-28T03:44:25;2.10;99.90
8953;DHT22;4511;50.890;8.054;2023-01-28T03:47:09;2.10;99.90
8953;DHT22;4511;50.890;8.054;2023-01-28T03:49:38;2.10;99.90
8953;DHT22;4511;50.890;8.054;2023-01-28T03:52:05;2.10;99.90
8953;DHT22;4511;50.890;8.054;2023-01-28T03:54:32;2.10;99.90
8953;DHT22;4511;50.890;8.054;2023-01-28T03:56:58;2.10;99.90
8953;DHT22;4511;50.890;8.054;2023-01-28T03:59:25;2.10;99.90
8953;DHT22;4511;50.890;8.054;2023-01-28T04:01:51;2.10;99.90
8953;DHT22;4511;50.890;8.054;2023-01-28T04:04:19;2.10;99.90
8953;DHT22;4511;50.890;8.054;2023-01-28T04:06:51;2.10;99.90
8953;DHT22;4511;50.890;8.054;2023-01-28T04:09:18;2.10;99.90
8953;DHT22;4511;50.890;8.054;2023-01-28T04:11:44;2.10;99.90
8953;DHT22;4511;50.890;8.054;2023-01-28T04:14:11;2.00;99.90
8953;DHT22;4511;50.890;8.054;2023-01-28T04:16:38;2.00;99.90
8953;DHT22;4511;50.890;8.054;2023-01-28T04:19:04;2.00;99.90
8953;DHT22;4511;50.890;8.054;2023-01-28T04:21:31;2.00;99.90
8953;DHT22;4511;50.890;8.054;2023-01-28T04:23:59;1.90;99.90
8953;DHT22;4511;50.890;8.054;2023-01-28T04:26:26;2.00;99.90
8953;DHT22;4511;50.890;8.054;2023-01-28T04:28:52;1.90;99.90
8953;DHT22;4511;50.890;8.054;2023-01-28T04:31:19;1.90;99.90
8953;DHT22;4511;50.890;8.054;2023-01-28T04:33:46;1.90;99.90
8953;DHT22;4511;50.890;8.054;2023-01-28T04:36:12;1.90;99.90
8953;DHT22;4511;50.890;8.054;2023-01-28T04:38:39;1.90;99.90
8953;DHT22;4511;50.890;8.054;2023-01-28T04:41:07;1.90;99.90
8953;DHT22;4511;50.890;8.054;2023-01-28T04:43:33;1.90;99.90
8953;DHT22;4511;50.890;8.054;2023-01-28T04:46:00;1.90;99.90
8953;DHT22;4511;50.890;8.054;2023-01-28T04:48:26;1.80;99.90
8953;DHT22;4511;50.890;8.054;2023-01-28T04:50:54;1.90;99.90
8953;DHT22;4511;50.890;8.054;2023-01-28T04:53:21;1.90;99.90
8953;DHT22;4511;50.890;8.054;2023-01-28T04:55:48;1.80;99.90
8953;DHT22;4511;50.890;8.054;2023-01-28T04:58:15;1.80;99.90
8953;DHT22;4511;50.890;8.054;2023-01-28T05:00:42;1.80;99.90
8953;DHT22;4511;50.890;8.054;2023-01-28T05:03:09;1.70;99.90
8953;DHT22;4511;50.890;8.054;2023-01-28T05:05:35;1.80;99.90
8953;DHT22;4511;50.890;8.054;2023-01-28T05:08:02;1.80;99.90
8953;DHT22;4511;50.890;8.054;2023-01-28T05:10:28;1.70;99.90
8953;DHT22;4511;50.890;8.054;2023-01-28T05:12:55;1.70;99.90
8953;DHT22;4511;50.890;8.054;2023-01-28T05:15:23;1.70;99.90
8953;DHT22;4511;50.890;8.054;2023-01-28T05:17:49;1.70;99.90
8953;DHT22;4511;50.890;8.054;2023-01-28T05:20:16;1.70;99.90
8953;DHT22;4511;50.890;8.054;2023-01-28T05:22:43;1.70;99.90
8953;DHT22;4511;50.890;8.054;2023-01-28T05:25:09;1.70;99.90
8953;DHT22;4511;50.890;8.054;2023-01-28T05:27:36;1.70;99.90
8953;DHT22;4511;50.890;8.054;2023-01-28T05:30:03;1.70;99.90
8953;DHT22;4511;50.890;8.054;2023-01-28T05:32:32;1.70;99.90
8953;DHT22;4511;50.890;8.054;2023-01-28T05:34:58;1.70;99.90
8953;DHT22;4511;50.890;8.054;2023-01-28T05:37:25;1.70;99.90
8953;DHT22;4511;50.890;8.054;2023-01-28T05:39:52;1.70;99.90
8953;DHT22;4511;50.890;8.054;2023-01-28T05:42:18;1.70;99.90
8953;DHT22;4511;50.890;8.054;2023-01-28T05:44:46;1.50;99.90
8953;DHT22;4511;50.890;8.054;2023-01-28T05:47:13;1.60;99.90
8953;DHT22;4511;50.890;8.054;2023-01-28T05:49:41;1.60;99.90
8953;DHT22;4511;50.890;8.054;2023-01-28T05:52:07;1.60;99.90
8953;DHT22;4511;50.890;8.054;2023-01-28T05:54:34;1.60;99.90
8953;DHT22;4511;50.890;8.054;2023-01-28T05:57:01;1.50;99.90
8953;DHT22;4511;50.890;8.054;2023-01-28T05:59:27;1.50;99.90
8953;DHT22;4511;50.890;8.054;2023-01-28T06:01:54;1.50;99.90
8953;DHT22;4511;50.890;8.054;2023-01-28T06:04:20;1.50;99.90
8953;DHT22;4511;50.890;8.054;2023-01-28T06:06:48;1.50;99.90
8953;DHT22;4511;50.890;8.054;2023-01-28T06:09:15;1.60;99.90
8953;DHT22;4511;50.890;8.054;2023-01-28T06:11:41;1.60;99.90
8953;DHT22;4511;50.890;8.054;2023-01-28T06:14:09;1.70;99.90
8953;DHT22;4511;50.890;8.054;2023-01-28T06:16:36;1.60;99.90
8953;DHT22;4511;50.890;8.054;2023-01-28T06:19:02;1.70;99.90
8953;DHT22;4511;50.890;8.054;2023-01-28T06:21:29;1.60;99.90
8953;DHT22;4511;50.890;8.054;2023-01-28T06:23:57;1.60;99.90
8953;DHT22;4511;50.890;8.054;2023-01-28T06:26:23;1.60;99.90
8953;DHT22;4511;50.890;8.054;2023-01-28T06:28:50;1.60;99.90
8953;DHT22;4511;50.890;8.054;2023-01-28T06:31:17;1.60;99.90
8953;DHT22;4511;50.890;8.054;2023-01-28T06:33:43;1.60;99.90
8953;DHT22;4511;50.890;8.054;2023-01-28T06:36:10;1.60;99.90
8953;DHT22;4511;50.890;8.054;2023-01-28T06:38:37;1.70;99.90
8953;DHT22;4511;50.890;8.054;2023-01-28T06:41:05;1.70;99.90
8953;DHT22;4511;50.890;8.054;2023-01-28T06:43:31;1.70;99.90
8953;DHT22;4511;50.890;8.054;2023-01-28T06:45:59;1.60;99.90
8953;DHT22;4511;50.890;8.054;2023-01-28T06:48:26;1.60;99.90
8953;DHT22;4511;50.890;8.054;2023-01-28T06:50:53;1.60;99.90
8953;DHT22;4511;50.890;8.054;2023-01-28T06:53:19;1.60;99.90
8953;DHT22;4511;50.890;8.054;2023-01-28T06:55:46;1.60;99.90
8953;DHT22;4511;50.890;8.054;2023-01-28T06:58:14;1.60;99.90
8953;DHT22;4511;50.890;8.054;2023-01-28T07:00:41;1.70;99.90
8953;DHT22;4511;50.890;8.054;2023-01-28T07:03:07;1.60;99.90
8953;DHT22;4511;50.890;8.054;2023-01-28T07:05:34;1.70;99.90
8953;DHT22;4511;50.890;8.054;2023-01-28T07:08:00;1.60;99.90
8953;DHT22;4511;50.890;8.054;2023-01-28T07:10:27;1.60;99.90
8953;DHT22;4511;50.890;8.054;2023-01-28T07:12:56;1.60;99.90
8953;DHT22;4511;50.890;8.054;2023-01-28T07:15:23;1.60;99.90
8953;DHT22;4511;50.890;8.054;2023-01-28T07:17:51;1.50;99.90
8953;DHT22;4511;50.890;8.054;2023-01-28T07:20:17;1.50;99.90
8953;DHT22;4511;50.890;8.054;2023-01-28T07:22:44;1.50;99.90
8953;DHT22;4511;50.890;8.054;2023-01-28T07:25:11;1.60;99.90
8953;DHT22;4511;50.890;8.054;2023-01-28T07:27:38;1.50;99.90
8953;DHT22;4511;50.890;8.054;2023-01-28T07:30:05;1.60;99.90
8953;DHT22;4511;50.890;8.054;2023-01-28T07:32:33;1.50;99.90
8953;DHT22;4511;50.890;8.054;2023-01-28T07:34:59;1.50;99.90
8953;DHT22;4511;50.890;8.054;2023-01-28T07:37:26;1.60;99.90
8953;DHT22;4511;50.890;8.054;2023-01-28T07:39:52;1.60;99.90
8953;DHT22;4511;50.890;8.054;2023-01-28T07:42:19;1.60;99.90
8953;DHT22;4511;50.890;8.054;2023-01-28T07:44:46;1.60;99.90
8953;DHT22;4511;50.890;8.054;2023-01-28T07:47:12;1.50;99.90
8953;DHT22;4511;50.890;8.054;2023-01-28T07:49:40;1.50;99.90
8953;DHT22;4511;50.890;8.054;2023-01-28T07:52:07;1.60;99.90
8953;DHT22;4511;50.890;8.054;2023-01-28T07:54:34;1.60;99.90
8953;DHT22;4511;50.890;8.054;2023-01-28T07:57:00;1.60;99.90
8953;DHT22;4511;50.890;8.054;2023-01-28T07:59:30;1.60;99.90
8953;DHT22;4511;50.890;8.054;2023-01-28T08:01:56;1.60;99.90
8953;DHT22;4511;50.890;8.054;2023-01-28T08:04:23;1.60;99.90
8953;DHT22;4511;50.890;8.054;2023-01-28T08:06:51;1.60;99.90
8953;DHT22;4511;50.890;8.054;2023-01-28T08:09:18;1.60;99.90
8953;DHT22;4511;50.890;8.054;2023-01-28T08:11:44;1.60;99.90
8953;DHT22;4511;50.890;8.054;2023-01-28T08:14:11;1.60;99.90
8953;DHT22;4511;50.890;8.054;2023-01-28T08:16:37;1.60;99.90
8953;DHT22;4511;50.890;8.054;2023-01-28T08:19:04;1.60;99.90
8953;DHT22;4511;50.890;8.054;2023-01-28T08:21:31;1.70;99.90
8953;DHT22;4511;50.890;8.054;2023-01-28T08:23:59;1.60;99.90
8953;DHT22;4511;50.890;8.054;2023-01-28T08:26:25;1.60;99.90
8953;DHT22;4511;50.890;8.054;2023-01-28T08:28:52;1.60;99.90
8953;DHT22;4511;50.890;8.054;2023-01-28T08:31:18;1.70;99.90
8953;DHT22;4511;50.890;8.054;2023-01-28T08:33:45;1.60;99.90
8953;DHT22;4511;50.890;8.054;2023-01-28T08:36:12;1.60;99.90
8953;DHT22;4511;50.890;8.054;2023-01-28T08:38:38;1.60;99.90
8953;DHT22;4511;50.890;8.054;2023-01-28T08:41:06;1.60;99.90
8953;DHT22;4511;50.890;8.054;2023-01-28T08:43:33;1.70;99.90
8953;DHT22;4511;50.890;8.054;2023-01-28T08:45:59;1.80;99.90
8953;DHT22;4511;50.890;8.054;2023-01-28T08:48:26;1.80;99.90
8953;DHT22;4511;50.890;8.054;2023-01-28T08:50:52;1.70;99.90
8953;DHT22;4511;50.890;8.054;2023-01-28T08:53:24;1.70;99.90
8953;DHT22;4511;50.890;8.054;2023-01-28T08:55:53;1.70;99.90
8953;DHT22;4511;50.890;8.054;2023-01-28T08:58:22;1.80;99.90
8953;DHT22;4511;50.890;8.054;2023-01-28T09:00:48;1.80;99.90
8953;DHT22;4511;50.890;8.054;2023-01-28T09:03:15;1.90;99.90
8953;DHT22;4511;50.890;8.054;2023-01-28T09:05:42;1.90;99.90
8953;DHT22;4511;50.890;8.054;2023-01-28T09:08:10;1.90;99.90
8953;DHT22;4511;50.890;8.054;2023-01-28T09:10:37;1.80;99.90
8953;DHT22;4511;50.890;8.054;2023-01-28T09:13:04;1.70;99.90
8953;DHT22;4511;50.890;8.054;2023-01-28T09:15:32;2.10;99.90
8953;DHT22;4511;50.890;8.054;2023-01-28T09:17:59;2.20;99.90
8953;DHT22;4511;50.890;8.054;2023-01-28T09:20:26;2.40;99.90
8953;DHT22;4511;50.890;8.054;2023-01-28T09:22:53;2.40;99.90
8953;DHT22;4511;50.890;8.054;2023-01-28T09:25:20;2.30;99.90
8953;DHT22;4511;50.890;8.054;2023-01-28T09:27:46;2.20;99.90
8953;DHT22;4511;50.890;8.054;2023-01-28T09:30:13;2.20;99.90
8953;DHT22;4511;50.890;8.054;2023-01-28T09:32:41;2.10;99.90
8953;DHT22;4511;50.890;8.054;2023-01-28T09:35:08;2.00;99.90
8953;DHT22;4511;50.890;8.054;2023-01-28T09:37:36;1.90;99.90
8953;DHT22;4511;50.890;8.054;2023-01-28T09:40:02;1.90;99.90
8953;DHT22;4511;50.890;8.054;2023-01-28T09:42:34;1.90;99.90
8953;DHT22;4511;50.890;8.054;2023-01-28T09:45:05;1.90;99.90
8953;DHT22;4511;50.890;8.054;2023-01-28T09:47:36;1.90;99.90
8953;DHT22;4511;50.890;8.054;2023-01-28T09:50:06;2.00;99.90
8953;DHT22;4511;50.890;8.054;2023-01-28T09:52:35;2.00;99.90
8953;DHT22;4511;50.890;8.054;2023-01-28T09:55:03;2.10;99.90
8953;DHT22;4511;50.890;8.054;2023-01-28T09:57:35;2.00;99.90
8953;DHT22;4511;50.890;8.054;2023-01-28T10:00:07;2.00;99.90
8953;DHT22;4511;50.890;8.054;2023-01-28T10:02:36;2.10;99.90
8953;DHT22;4511;50.890;8.054;2023-01-28T10:05:15;2.00;99.90
8953;DHT22;4511;50.890;8.054;2023-01-28T10:07:44;2.10;99.90
8953;DHT22;4511;50.890;8.054;2023-01-28T10:10:12;2.10;99.90
8953;DHT22;4511;50.890;8.054;2023-01-28T10:12:47;2.10;99.90
8953;DHT22;4511;50.890;8.054;2023-01-28T10:15:25;2.10;99.90
8953;DHT22;4511;50.890;8.054;2023-01-28T10:17:55;2.30;99.90
8953;DHT22;4511;50.890;8.054;2023-01-28T10:20:24;2.40;99.90
8953;DHT22;4511;50.890;8.054;2023-01-28T10:22:54;2.30;99.90
8953;DHT22;4511;50.890;8.054;2023-01-28T10:25:22;2.20;99.90
8953;DHT22;4511;50.890;8.054;2023-01-28T10:27:49;2.20;99.90
8953;DHT22;4511;50.890;8.054;2023-01-28T10:30:17;2.20;99.90
8953;DHT22;4511;50.890;8.054;2023-01-28T10:32:46;2.20;99.90
8953;DHT22;4511;50.890;8.054;2023-01-28T10:35:15;2.20;99.90
8953;DHT22;4511;50.890;8.054;2023-01-28T10:37:43;2.20;99.90
8953;DHT22;4511;50.890;8.054;2023-01-28T10:42:38;2.10;99.90
8953;DHT22;4511;50.890;8.054;2023-01-28T10:45:06;2.10;99.90
8953;DHT22;4511;50.890;8.054;2023-01-28T10:47:40;2.10;99.90
8953;DHT22;4511;50.890;8.054;2023-01-28T10:50:10;2.00;99.90
8953;DHT22;4511;50.890;8.054;2023-01-28T10:52:50;1.90;99.90
8953;DHT22;4511;50.890;8.054;2023-01-28T10:55:17;1.90;99.90
8953;DHT22;4511;50.890;8.054;2023-01-28T10:57:44;1.90;99.90
8953;DHT22;4511;50.890;8.054;2023-01-28T11:00:11;1.90;99.90
8953;DHT22;4511;50.890;8.054;2023-01-28T11:02:44;1.90;99.90
8953;DHT22;4511;50.890;8.054;2023-01-28T11:05:14;1.90;99.90
8953;DHT22;4511;50.890;8.054;2023-01-28T11:07:42;1.80;99.90
8953;DHT22;4511;50.890;8.054;2023-01-28T11:10:24;1.90;99.90
8953;DHT22;4511;50.890;8.054;2023-01-28T11:12:54;1.90;99.90
8953;DHT22;4511;50.890;8.054;2023-01-28T11:15:20;2.00;99.90
8953;DHT22;4511;50.890;8.054;2023-01-28T11:17:47;1.90;99.90
8953;DHT22;4511;50.890;8.054;2023-01-28T11:20:17;2.10;99.90
8953;DHT22;4511;50.890;8.054;2023-01-28T11:22:45;2.20;99.90
8953;DHT22;4511;50.890;8.054;2023-01-28T11:25:14;2.10;99.90
8953;DHT22;4511;50.890;8.054;2023-01-28T11:27:46;2.00;99.90
8953;DHT22;4511;50.890;8.054;2023-01-28T11:30:20;2.10;99.90
8953;DHT22;4511;50.890;8.054;2023-01-28T11:32:52;2.00;99.90
8953;DHT22;4511;50.890;8.054;2023-01-28T11:35:23;2.00;99.90
8953;DHT22;4511;50.890;8.054;2023-01-28T11:37:52;1.90;99.90
8953;DHT22;4511;50.890;8.054;2023-01-28T11:40:18;1.90;99.90
8953;DHT22;4511;50.890;8.054;2023-01-28T11:42:47;1.90;99.90
8953;DHT22;4511;50.890;8.054;2023-01-28T11:45:14;1.90;99.90
8953;DHT22;4511;50.890;8.054;2023-01-28T11:47:44;1.90;99.90
8953;DHT22;4511;50.890;8.054;2023-01-28T11:50:14;1.90;99.90
8953;DHT22;4511;50.890;8.054;2023-01-28T11:53:01;2.00;99.90
8953;DHT22;4511;50.890;8.054;2023-01-28T11:55:44;2.00;99.90
8953;DHT22;4511;50.890;8.054;2023-01-28T11:58:32;2.10;99.90
8953;DHT22;4511;50.890;8.054;2023-01-28T12:01:01;2.00;99.90
8953;DHT22;4511;50.890;8.054;2023-01-28T12:03:36;2.00;99.90
8953;DHT22;4511;50.890;8.054;2023-01-28T12:06:11;2.00;99.90
8953;DHT22;4511;50.890;8.054;2023-01-28T12:08:42;2.00;99.90
8953;DHT22;4511;50.890;8.054;2023-01-28T12:11:19;2.00;99.90
8953;DHT22;4511;50.890;8.054;2023-01-28T12:14:16;2.00;99.90
8953;DHT22;4511;50.890;8.054;2023-01-28T12:16:50;2.00;99.90
8953;DHT22;4511;50.890;8.054;2023-01-28T12:19:23;2.00;99.90
8953;DHT22;4511;50.890;8.054;2023-01-28T12:22:00;2.00;99.90
8953;DHT22;4511;50.890;8.054;2023-01-28T12:24:34;2.00;99.90
8953;DHT22;4511;50.890;8.054;2023-01-28T12:27:05;2.00;99.90
8953;DHT22;4511;50.890;8.054;2023-01-28T12:29:40;2.00;99.90
8953;DHT22;4511;50.890;8.054;2023-01-28T12:32:14;2.00;99.90
8953;DHT22;4511;50.890;8.054;2023-01-28T12:34:49;2.10;99.90
8953;DHT22;4511;50.890;8.054;2023-01-28T12:37:21;2.10;99.90
8953;DHT22;4511;50.890;8.054;2023-01-28T12:39:55;2.10;99.90
8953;DHT22;4511;50.890;8.054;2023-01-28T12:42:26;2.30;99.90
8953;DHT22;4511;50.890;8.054;2023-01-28T12:45:00;2.30;99.90
8953;DHT22;4511;50.890;8.054;2023-01-28T12:47:28;2.20;99.90
8953;DHT22;4511;50.890;8.054;2023-01-28T12:49:58;2.00;99.90
8953;DHT22;4511;50.890;8.054;2023-01-28T12:52:28;2.00;99.90
8953;DHT22;4511;50.890;8.054;2023-01-28T12:54:57;2.00;99.90
8953;DHT22;4511;50.890;8.054;2023-01-28T12:57:25;2.00;99.90
8953;DHT22;4511;50.890;8.054;2023-01-28T12:59:53;2.10;99.90
8953;DHT22;4511;50.890;8.054;2023-01-28T13:02:25;2.10;99.90
8953;DHT22;4511;50.890;8.054;2023-01-28T13:04:53;2.10;99.90
8953;DHT22;4511;50.890;8.054;2023-01-28T13:07:23;2.10;99.90
8953;DHT22;4511;50.890;8.054;2023-01-28T13:09:51;2.10;99.90
8953;DHT22;4511;50.890;8.054;2023-01-28T13:12:19;2.00;99.90
8953;DHT22;4511;50.890;8.054;2023-01-28T13:14:45;2.00;99.90
8953;DHT22;4511;50.890;8.054;2023-01-28T13:17:24;2.10;99.90
8953;DHT22;4511;50.890;8.054;2023-01-28T13:19:52;2.10;99.90
8953;DHT22;4511;50.890;8.054;2023-01-28T13:22:26;2.10;99.90
8953;DHT22;4511;50.890;8.054;2023-01-28T13:24:53;2.10;99.90
8953;DHT22;4511;50.890;8.054;2023-01-28T13:27:23;2.10;99.90
8953;DHT22;4511;50.890;8.054;2023-01-28T13:29:59;2.10;99.90
8953;DHT22;4511;50.890;8.054;2023-01-28T13:32:27;2.10;99.90
8953;DHT22;4511;50.890;8.054;2023-01-28T13:34:59;2.10;99.90
8953;DHT22;4511;50.890;8.054;2023-01-28T13:37:28;2.00;99.90
8953;DHT22;4511;50.890;8.054;2023-01-28T13:39:58;1.90;99.90
8953;DHT22;4511;50.890;8.054;2023-01-28T13:42:26;1.90;99.90
8953;DHT22;4511;50.890;8.054;2023-01-28T13:44:53;1.90;99.90
8953;DHT22;4511;50.890;8.054;2023-01-28T13:47:22;2.00;99.90
8953;DHT22;4511;50.890;8.054;2023-01-28T13:49:53;2.10;99.90
8953;DHT22;4511;50.890;8.054;2023-01-28T13:52:24;2.30;99.90
8953;DHT22;4511;50.890;8.054;2023-01-28T13:54:53;2.30;99.90
8953;DHT22;4511;50.890;8.054;2023-01-28T13:57:41;2.30;99.90
8953;DHT22;4511;50.890;8.054;2023-01-28T14:00:10;2.40;99.90
8953;DHT22;4511;50.890;8.054;2023-01-28T14:02:42;2.50;99.90
8953;DHT22;4511;50.890;8.054;2023-01-28T14:05:20;2.50;99.90
8953;DHT22;4511;50.890;8.054;2023-01-28T14:10:39;2.40;99.90
8953;DHT22;4511;50.890;8.054;2023-01-28T14:13:12;2.40;99.90
8953;DHT22;4511;50.890;8.054;2023-01-28T14:15:53;2.40;99.90
8953;DHT22;4511;50.890;8.054;2023-01-28T14:18:24;2.50;99.90
8953;DHT22;4511;50.890;8.054;2023-01-28T14:20:51;3.10;99.90
8953;DHT22;4511;50.890;8.054;2023-01-28T14:23:19;3.20;99.90
8953;DHT22;4511;50.890;8.054;2023-01-28T14:25:54;3.00;99.90
8953;DHT22;4511;50.890;8.054;2023-01-28T14:28:26;2.90;99.90
8953;DHT22;4511;50.890;8.054;2023-01-28T14:30:59;2.90;99.90
8953;DHT22;4511;50.890;8.054;2023-01-28T14:33:30;2.90;99.90
8953;DHT22;4511;50.890;8.054;2023-01-28T14:35:57;2.80;99.90
8953;DHT22;4511;50.890;8.054;2023-01-28T14:38:23;2.80;99.90
8953;DHT22;4511;50.890;8.054;2023-01-28T14:40:50;2.80;99.90
8953;DHT22;4511;50.890;8.054;2023-01-28T14:43:19;2.80;99.90
8953;DHT22;4511;50.890;8.054;2023-01-28T14:45:52;2.80;99.90
8953;DHT22;4511;50.890;8.054;2023-01-28T14:48:23;2.80;99.90
8953;DHT22;4511;50.890;8.054;2023-01-28T14:51:01;2.80;99.90
8953;DHT22;4511;50.890;8.054;2023-01-28T14:53:32;2.60;99.90
8953;DHT22;4511;50.890;8.054;2023-01-28T14:56:04;2.60;99.90
8953;DHT22;4511;50.890;8.054;2023-01-28T14:58:36;2.60;99.90
8953;DHT22;4511;50.890;8.054;2023-01-28T15:01:04;2.50;99.90
8953;DHT22;4511;50.890;8.054;2023-01-28T15:03:32;2.50;99.90
8953;DHT22;4511;50.890;8.054;2023-01-28T15:06:03;2.40;99.90
8953;DHT22;4511;50.890;8.054;2023-01-28T15:08:30;2.20;99.90
8953;DHT22;4511;50.890;8.054;2023-01-28T15:10:57;2.20;99.90
8953;DHT22;4511;50.890;8.054;2023-01-28T15:13:25;2.20;99.90
8953;DHT22;4511;50.890;8.054;2023-01-28T15:15:54;2.20;99.90
8953;DHT22;4511;50.890;8.054;2023-01-28T15:18:25;2.20;99.90
8953;DHT22;4511;50.890;8.054;2023-01-28T15:20:54;2.10;99.90
8953;DHT22;4511;50.890;8.054;2023-01-28T15:23:22;2.10;99.90
8953;DHT22;4511;50.890;8.054;2023-01-28T15:25:50;2.10;99.90
8953;DHT22;4511;50.890;8.054;2023-01-28T15:28:19;2.10;99.90
8953;DHT22;4511;50.890;8.054;2023-01-28T15:30:47;2.10;99.90
8953;DHT22;4511;50.890;8.054;2023-01-28T15:33:15;2.00;99.90
8953;DHT22;4511;50.890;8.054;2023-01-28T15:35:45;2.00;99.90
8953;DHT22;4511;50.890;8.054;2023-01-28T15:38:12;2.00;99.90
8953;DHT22;4511;50.890;8.054;2023-01-28T15:40:39;2.00;99.90
8953;DHT22;4511;50.890;8.054;2023-01-28T15:43:10;2.00;99.90
8953;DHT22;4511;50.890;8.054;2023-01-28T15:45:38;2.00;99.90
8953;DHT22;4511;50.890;8.054;2023-01-28T15:48:10;1.90;99.90
8953;DHT22;4511;50.890;8.054;2023-01-28T15:50:40;1.80;99.90
8953;DHT22;4511;50.890;8.054;2023-01-28T15:53:08;1.80;99.90
8953;DHT22;4511;50.890;8.054;2023-01-28T15:55:39;1.80;99.90
8953;DHT22;4511;50.890;8.054;2023-01-28T15:58:15;1.70;99.90
8953;DHT22;4511;50.890;8.054;2023-01-28T16:00:42;1.60;99.90
8953;DHT22;4511;50.890;8.054;2023-01-28T16:03:09;1.60;99.90
8953;DHT22;4511;50.890;8.054;2023-01-28T16:05:36;1.60;99.90
8953;DHT22;4511;50.890;8.054;2023-01-28T16:08:07;1.60;99.90
8953;DHT22;4511;50.890;8.054;2023-01-28T16:10:34;1.50;99.90
8953;DHT22;4511;50.890;8.054;2023-01-28T16:13:03;1.40;99.90
8953;DHT22;4511;50.890;8.054;2023-01-28T16:15:31;1.40;99.90
8953;DHT22;4511;50.890;8.054;2023-01-28T16:17:58;1.30;99.90
8953;DHT22;4511;50.890;8.054;2023-01-28T16:20:26;1.40;99.90
8953;DHT22;4511;50.890;8.054;2023-01-28T16:22:54;2.00;99.90
8953;DHT22;4511;50.890;8.054;2023-01-28T16:25:26;1.80;99.90
8953;DHT22;4511;50.890;8.054;2023-01-28T16:27:53;1.70;99.90
8953;DHT22;4511;50.890;8.054;2023-01-28T16:30:20;1.60;99.90
8953;DHT22;4511;50.890;8.054;2023-01-28T16:32:47;1.40;99.90
8953;DHT22;4511;50.890;8.054;2023-01-28T16:35:14;1.30;99.90
8953;DHT22;4511;50.890;8.054;2023-01-28T16:37:42;1.20;99.90